sensor_id;sensor_type;location;lat;lon;timestamp;pressure;altitude;pressure_sealevel;temperature;humidity
22047;BME280;11187;49.412;20.956;2022-09-03T00:00:15;95223.47;;;13.94;87.51
22047;BME280;11187;49.412;20.956;2022-09-03T00:03:17;95218.31;;;13.94;87.76
22047;BME280;11187;49.412;20.956;2022-09-03T00:06:15;95218.38;;;13.92;87.73
22047;BME280;11187;49.412;20.956;2022-09-03T00:15:11;95227.03;;;13.90;88.29
22047;BME280;11187;49.412;20.956;2022-09-03T00:18:02;95221.88;;;13.90;88.41
22047;BME280;11187;49.412;20.956;2022-09-03T00:21:01;95217.66;;;13.87;88.45
22047;BME280;11187;49.412;20.956;2022-09-03T00:23:41;95215.94;;;13.88;88.81
22047;BME280;11187;49.412;20.956;2022-09-03T00:26:33;95219.38;;;13.87;88.82
22047;BME280;11187;49.412;20.956;2022-09-03T00:29:15;95216.84;;;13.85;89.03
22047;BME280;11187;49.412;20.956;2022-09-03T00:32:08;95215.13;;;13.86;89.41
22047;BME280;11187;49.412;20.956;2022-09-03T00:34:45;95216.91;;;13.84;89.08
22047;BME280;11187;49.412;20.956;2022-09-03T00:37:42;95214.38;;;13.82;89.44
22047;BME280;11187;49.412;20.956;2022-09-03T00:40:45;95209.25;;;13.81;89.29
22047;BME280;11187;49.412;20.956;2022-09-03T00:43:39;95220.47;;;13.79;89.09
22047;BME280;11187;49.412;20.956;2022-09-03T00:53:10;95209.41;;;13.76;89.25
22047;BME280;11187;49.412;20.956;2022-09-03T00:56:29;95215.44;;;13.75;90.11
22047;BME280;11187;49.412;20.956;2022-09-03T00:59:37;95220.59;;;13.75;89.96
22047;BME280;11187;49.412;20.956;2022-09-03T01:06:05;95215.69;;;13.67;90.19
22047;BME280;11187;49.412;20.956;2022-09-03T01:20:49;95223.56;;;13.61;90.87
22047;BME280;11187;49.412;20.956;2022-09-03T01:32:53;95223.69;;;13.56;90.91
22047;BME280;11187;49.412;20.956;2022-09-03T01:36:10;95228.03;;;13.54;91.35
22047;BME280;11187;49.412;20.956;2022-09-03T01:38:59;95232.38;;;13.52;91.75
22047;BME280;11187;49.412;20.956;2022-09-03T01:45:14;95225.56;;;13.51;91.60
22047;BME280;11187;49.412;20.956;2022-09-03T01:51:26;95229.94;;;13.48;91.90
22047;BME280;11187;49.412;20.956;2022-09-03T01:54:35;95223.06;;;13.48;91.94
22047;BME280;11187;49.412;20.956;2022-09-03T01:57:24;95218.75;;;13.49;91.91
22047;BME280;11187;49.412;20.956;2022-09-03T02:00:22;95217.09;;;13.46;91.91
22047;BME280;11187;49.412;20.956;2022-09-03T02:03:01;95218.84;;;13.46;92.12
22047;BME280;11187;49.412;20.956;2022-09-03T02:05:49;95217.97;;;13.47;92.18
22047;BME280;11187;49.412;20.956;2022-09-03T02:08:25;95224.00;;;13.46;92.09
22047;BME280;11187;49.412;20.956;2022-09-03T02:11:19;95224.81;;;13.46;91.93
22047;BME280;11187;49.412;20.956;2022-09-03T02:14:13;95224.09;;;13.43;92.11
22047;BME280;11187;49.412;20.956;2022-09-03T02:16:46;95230.97;;;13.42;92.09
22047;BME280;11187;49.412;20.956;2022-09-03T02:19:33;95226.72;;;13.40;92.24
22047;BME280;11187;49.412;20.956;2022-09-03T02:22:09;95233.59;;;13.39;92.37
22047;BME280;11187;49.412;20.956;2022-09-03T02:25:06;95232.78;;;13.37;92.73
22047;BME280;11187;49.412;20.956;2022-09-03T02:28:00;95232.75;;;13.39;92.85
22047;BME280;11187;49.412;20.956;2022-09-03T02:30:43;95235.34;;;13.39;92.65
22047;BME280;11187;49.412;20.956;2022-09-03T02:33:35;95234.53;;;13.36;92.86
22047;BME280;11187;49.412;20.956;2022-09-03T02:36:11;95230.28;;;13.35;92.83
22047;BME280;11187;49.412;20.956;2022-09-03T02:38:59;95234.53;;;13.36;93.43
22047;BME280;11187;49.412;20.956;2022-09-03T02:41:33;95232.84;;;13.35;93.16
22047;BME280;11187;49.412;20.956;2022-09-03T02:44:25;95223.44;;;13.34;93.46
22047;BME280;11187;49.412;20.956;2022-09-03T02:47:05;95224.34;;;13.33;93.42
22047;BME280;11187;49.412;20.956;2022-09-03T02:50:01;95221.78;;;13.33;93.23
22047;BME280;11187;49.412;20.956;2022-09-03T02:52:55;95233.75;;;13.33;93.53
22047;BME280;11187;49.412;20.956;2022-09-03T02:55:28;95235.56;;;13.31;93.43
22047;BME280;11187;49.412;20.956;2022-09-03T02:58:22;95236.44;;;13.30;93.51
22047;BME280;11187;49.412;20.956;2022-09-03T03:00:55;95234.75;;;13.29;93.57
22047;BME280;11187;49.412;20.956;2022-09-03T03:03:53;95234.69;;;13.30;93.83
22047;BME280;11187;49.412;20.956;2022-09-03T03:06:47;95233.00;;;13.29;93.86
22047;BME280;11187;49.412;20.956;2022-09-03T03:09:22;95233.06;;;13.26;93.93
22047;BME280;11187;49.412;20.956;2022-09-03T03:12:09;95236.50;;;13.27;93.72
22047;BME280;11187;49.412;20.956;2022-09-03T03:14:42;95229.59;;;13.29;93.98
22047;BME280;11187;49.412;20.956;2022-09-03T03:17:29;95233.84;;;13.30;93.89
22047;BME280;11187;49.412;20.956;2022-09-03T03:20:03;95234.75;;;13.29;93.85
22047;BME280;11187;49.412;20.956;2022-09-03T03:22:50;95223.63;;;13.27;94.24
22047;BME280;11187;49.412;20.956;2022-09-03T03:25:23;95236.50;;;13.25;93.90
22047;BME280;11187;49.412;20.956;2022-09-03T03:28:17;95235.69;;;13.25;94.20
22047;BME280;11187;49.412;20.956;2022-09-03T03:31:13;95233.94;;;13.25;94.75
22047;BME280;11187;49.412;20.956;2022-09-03T03:33:54;95238.25;;;13.25;94.76
22047;BME280;11187;49.412;20.956;2022-09-03T03:36:41;95240.00;;;13.23;94.74
22047;BME280;11187;49.412;20.956;2022-09-03T03:39:14;95240.84;;;13.23;94.64
22047;BME280;11187;49.412;20.956;2022-09-03T03:42:01;95240.03;;;13.21;94.71
22047;BME280;11187;49.412;20.956;2022-09-03T03:44:34;95232.34;;;13.21;94.99
22047;BME280;11187;49.412;20.956;2022-09-03T03:47:23;95238.38;;;13.20;94.79
22047;BME280;11187;49.412;20.956;2022-09-03T03:49:59;95236.63;;;13.21;95.00
22047;BME280;11187;49.412;20.956;2022-09-03T03:52:46;95234.09;;;13.19;95.26
22047;BME280;11187;49.412;20.956;2022-09-03T03:55:20;95240.94;;;13.20;95.50
22047;BME280;11187;49.412;20.956;2022-09-03T03:58:11;95248.66;;;13.20;95.17
22047;BME280;11187;49.412;20.956;2022-09-03T04:00:44;95242.69;;;13.20;94.86
22047;BME280;11187;49.412;20.956;2022-09-03T04:03:31;95239.31;;;13.18;95.51
22047;BME280;11187;49.412;20.956;2022-09-03T04:06:05;95239.38;;;13.14;95.26
22047;BME280;11187;49.412;20.956;2022-09-03T04:08:54;95236.75;;;13.16;95.73
22047;BME280;11187;49.412;20.956;2022-09-03T04:11:28;95238.50;;;13.15;95.44
22047;BME280;11187;49.412;20.956;2022-09-03T04:14:15;95241.00;;;13.17;95.30
22047;BME280;11187;49.412;20.956;2022-09-03T04:16:49;95245.31;;;13.16;95.20
22047;BME280;11187;49.412;20.956;2022-09-03T04:19:36;95241.06;;;13.15;95.33
22047;BME280;11187;49.412;20.956;2022-09-03T04:22:09;95240.25;;;13.13;95.61
22047;BME280;11187;49.412;20.956;2022-09-03T04:24:58;95244.56;;;13.13;95.89
22047;BME280;11187;49.412;20.956;2022-09-03T04:27:31;95244.50;;;13.14;95.92
22047;BME280;11187;49.412;20.956;2022-09-03T04:30:18;95236.78;;;13.14;95.89
22047;BME280;11187;49.412;20.956;2022-09-03T04:32:51;95239.38;;;13.14;96.09
22047;BME280;11187;49.412;20.956;2022-09-03T04:35:38;95238.56;;;13.12;95.89
22047;BME280;11187;49.412;20.956;2022-09-03T04:38:12;95242.00;;;13.13;96.12
22047;BME280;11187;49.412;20.956;2022-09-03T04:40:59;95250.63;;;13.10;96.04
22047;BME280;11187;49.412;20.956;2022-09-03T04:43:34;95244.59;;;13.11;96.32
22047;BME280;11187;49.412;20.956;2022-09-03T04:46:30;95248.06;;;13.10;96.17
22047;BME280;11187;49.412;20.956;2022-09-03T04:49:06;95249.78;;;13.10;96.13
22047;BME280;11187;49.412;20.956;2022-09-03T04:52:01;95251.50;;;13.09;96.74
22047;BME280;11187;49.412;20.956;2022-09-03T04:54:55;95254.06;;;13.09;96.51
22047;BME280;11187;49.412;20.956;2022-09-03T04:57:28;95256.56;;;13.12;96.47
22047;BME280;11187;49.412;20.956;2022-09-03T05:00:16;95250.56;;;13.12;95.86
22047;BME280;11187;49.412;20.956;2022-09-03T05:02:50;95248.94;;;13.09;96.19
22047;BME280;11187;49.412;20.956;2022-09-03T05:05:37;95254.91;;;13.10;96.36
22047;BME280;11187;49.412;20.956;2022-09-03T05:08:14;95248.09;;;13.09;96.25
22047;BME280;11187;49.412;20.956;2022-09-03T05:11:02;95253.16;;;13.12;96.18
22047;BME280;11187;49.412;20.956;2022-09-03T05:13:35;95257.44;;;13.11;95.76
22047;BME280;11187;49.412;20.956;2022-09-03T05:16:23;95255.72;;;13.12;95.86
22047;BME280;11187;49.412;20.956;2022-09-03T05:18:58;95258.28;;;13.12;95.91
22047;BME280;11187;49.412;20.956;2022-09-03T05:21:53;95258.34;;;13.10;95.49
22047;BME280;11187;49.412;20.956;2022-09-03T05:24:26;95260.06;;;13.10;95.33
22047;BME280;11187;49.412;20.956;2022-09-03T05:27:14;95266.06;;;13.10;95.23
22047;BME280;11187;49.412;20.956;2022-09-03T05:29:48;95266.00;;;13.12;95.45
22047;BME280;11187;49.412;20.956;2022-09-03T05:32:42;95266.94;;;13.09;95.09
22047;BME280;11187;49.412;20.956;2022-09-03T05:35:36;95272.97;;;13.08;95.21
22047;BME280;11187;49.412;20.956;2022-09-03T05:38:30;95261.88;;;13.06;95.88
22047;BME280;11187;49.412;20.956;2022-09-03T05:41:05;95261.81;;;13.08;95.55
22047;BME280;11187;49.412;20.956;2022-09-03T05:44:00;95262.69;;;13.08;95.67
22047;BME280;11187;49.412;20.956;2022-09-03T05:46:34;95275.47;;;13.10;95.75
22047;BME280;11187;49.412;20.956;2022-09-03T05:49:28;95254.91;;;13.10;95.69
22047;BME280;11187;49.412;20.956;2022-09-03T05:52:22;95263.44;;;13.12;95.71
22047;BME280;11187;49.412;20.956;2022-09-03T05:54:55;95268.53;;;13.13;95.87
22047;BME280;11187;49.412;20.956;2022-09-03T05:57:42;95266.78;;;13.15;95.80
22047;BME280;11187;49.412;20.956;2022-09-03T06:00:15;95277.00;;;13.17;95.54
22047;BME280;11187;49.412;20.956;2022-09-03T06:03:02;95277.88;;;13.18;95.37
22047;BME280;11187;49.412;20.956;2022-09-03T06:05:35;95274.38;;;13.20;95.35
22047;BME280;11187;49.412;20.956;2022-09-03T06:08:24;95279.50;;;13.20;95.50
22047;BME280;11187;49.412;20.956;2022-09-03T06:10:59;95282.09;;;13.20;95.40
22047;BME280;11187;49.412;20.956;2022-09-03T06:13:46;95283.81;;;13.20;95.73
22047;BME280;11187;49.412;20.956;2022-09-03T06:16:19;95283.81;;;13.20;95.40
22047;BME280;11187;49.412;20.956;2022-09-03T06:19:11;95282.91;;;13.21;95.82
22047;BME280;11187;49.412;20.956;2022-09-03T06:21:46;95287.19;;;13.22;95.52
22047;BME280;11187;49.412;20.956;2022-09-03T06:24:41;95283.72;;;13.23;96.15
22047;BME280;11187;49.412;20.956;2022-09-03T06:27:35;95287.09;;;13.25;95.72
22047;BME280;11187;49.412;20.956;2022-09-03T06:30:08;95285.38;;;13.25;95.97
22047;BME280;11187;49.412;20.956;2022-09-03T06:33:03;95283.59;;;13.29;96.00
22047;BME280;11187;49.412;20.956;2022-09-03T06:35:36;95288.69;;;13.30;96.00
22047;BME280;11187;49.412;20.956;2022-09-03T06:38:24;95286.91;;;13.32;95.89
22047;BME280;11187;49.412;20.956;2022-09-03T06:41:02;95289.38;;;13.37;95.86
22047;BME280;11187;49.412;20.956;2022-09-03T06:44:06;95289.31;;;13.40;95.71
22047;BME280;11187;49.412;20.956;2022-09-03T06:47:01;95290.13;;;13.42;95.70
22047;BME280;11187;49.412;20.956;2022-09-03T06:49:34;95292.59;;;13.45;95.64
22047;BME280;11187;49.412;20.956;2022-09-03T06:52:28;95290.81;;;13.47;95.20
22047;BME280;11187;49.412;20.956;2022-09-03T06:55:01;95289.91;;;13.50;95.37
22047;BME280;11187;49.412;20.956;2022-09-03T06:57:55;95294.13;;;13.52;95.70
22047;BME280;11187;49.412;20.956;2022-09-03T07:00:49;95295.84;;;13.52;95.55
22047;BME280;11187;49.412;20.956;2022-09-03T07:03:24;95298.34;;;13.53;95.55
22047;BME280;11187;49.412;20.956;2022-09-03T07:06:18;95303.47;;;13.55;95.26
22047;BME280;11187;49.412;20.956;2022-09-03T07:09:12;95309.44;;;13.55;95.34
22047;BME280;11187;49.412;20.956;2022-09-03T07:12:06;95306.88;;;13.55;95.37
22047;BME280;11187;49.412;20.956;2022-09-03T07:14:39;95312.00;;;13.57;95.26
22047;BME280;11187;49.412;20.956;2022-09-03T07:17:30;95318.75;;;13.61;95.43
22047;BME280;11187;49.412;20.956;2022-09-03T07:20:03;95314.44;;;13.62;94.90
22047;BME280;11187;49.412;20.956;2022-09-03T07:22:53;95316.16;;;13.63;94.87
22047;BME280;11187;49.412;20.956;2022-09-03T07:25:27;95314.34;;;13.65;95.23
22047;BME280;11187;49.412;20.956;2022-09-03T07:28:14;95328.00;;;13.67;95.05
22047;BME280;11187;49.412;20.956;2022-09-03T07:30:49;95319.44;;;13.68;95.33
22047;BME280;11187;49.412;20.956;2022-09-03T07:33:37;95324.47;;;13.71;95.10
22047;BME280;11187;49.412;20.956;2022-09-03T07:36:14;95325.28;;;13.73;94.84
22047;BME280;11187;49.412;20.956;2022-09-03T07:39:14;95337.31;;;13.72;95.21
22047;BME280;11187;49.412;20.956;2022-09-03T07:42:08;95338.16;;;13.73;94.58
22047;BME280;11187;49.412;20.956;2022-09-03T07:45:02;95343.25;;;13.74;94.90
22047;BME280;11187;49.412;20.956;2022-09-03T07:47:45;95339.78;;;13.75;94.90
22047;BME280;11187;49.412;20.956;2022-09-03T07:50:32;95340.59;;;13.77;94.89
22047;BME280;11187;49.412;20.956;2022-09-03T07:53:10;95335.34;;;13.81;94.93
22047;BME280;11187;49.412;20.956;2022-09-03T07:56:08;95340.47;;;13.82;94.03
22047;BME280;11187;49.412;20.956;2022-09-03T07:59:03;95343.03;;;13.82;94.80
22047;BME280;11187;49.412;20.956;2022-09-03T08:01:57;95338.72;;;13.83;94.96
22047;BME280;11187;49.412;20.956;2022-09-03T08:04:30;95349.84;;;13.85;94.53
22047;BME280;11187;49.412;20.956;2022-09-03T08:07:17;95339.47;;;13.88;94.48
22047;BME280;11187;49.412;20.956;2022-09-03T08:09:52;95341.03;;;13.93;94.29
22047;BME280;11187;49.412;20.956;2022-09-03T08:12:47;95342.59;;;13.99;93.68
22047;BME280;11187;49.412;20.956;2022-09-03T08:15:41;95346.00;;;13.99;94.03
22047;BME280;11187;49.412;20.956;2022-09-03T08:18:14;95352.69;;;14.05;93.78
22047;BME280;11187;49.412;20.956;2022-09-03T08:21:07;95353.47;;;14.09;93.68
22047;BME280;11187;49.412;20.956;2022-09-03T08:23:42;95348.28;;;14.10;92.96
22047;BME280;11187;49.412;20.956;2022-09-03T08:26:41;95343.88;;;14.14;92.49
22047;BME280;11187;49.412;20.956;2022-09-03T08:29:24;95346.41;;;14.15;92.81
22047;BME280;11187;49.412;20.956;2022-09-03T08:32:04;95351.44;;;14.20;92.85
22047;BME280;11187;49.412;20.956;2022-09-03T08:34:46;95351.34;;;14.23;92.42
22047;BME280;11187;49.412;20.956;2022-09-03T08:37:26;95357.25;;;14.27;92.27
22047;BME280;11187;49.412;20.956;2022-09-03T08:40:08;95356.31;;;14.29;92.84
22047;BME280;11187;49.412;20.956;2022-09-03T08:45:52;95350.13;;;14.35;91.95
22047;BME280;11187;49.412;20.956;2022-09-03T08:48:26;95356.09;;;14.37;92.12
22047;BME280;11187;49.412;20.956;2022-09-03T08:51:22;95344.84;;;14.39;92.32
22047;BME280;11187;49.412;20.956;2022-09-03T08:54:17;95348.22;;;14.41;91.84
22047;BME280;11187;49.412;20.956;2022-09-03T08:57:15;95347.25;;;14.46;91.44
22047;BME280;11187;49.412;20.956;2022-09-03T08:59:53;95351.38;;;14.51;92.70
22047;BME280;11187;49.412;20.956;2022-09-03T09:05:43;95355.53;;;14.57;91.16
22047;BME280;11187;49.412;20.956;2022-09-03T09:08:50;95355.50;;;14.58;91.22
22047;BME280;11187;49.412;20.956;2022-09-03T09:20:47;95355.41;;;14.60;90.61
22047;BME280;11187;49.412;20.956;2022-09-03T09:23:33;95348.50;;;14.62;90.01
22047;BME280;11187;49.412;20.956;2022-09-03T09:26:22;95345.03;;;14.63;90.13
22047;BME280;11187;49.412;20.956;2022-09-03T09:29:03;95344.13;;;14.64;88.77
22047;BME280;11187;49.412;20.956;2022-09-03T09:31:58;95351.03;;;14.64;89.39
22047;BME280;11187;49.412;20.956;2022-09-03T09:34:52;95359.53;;;14.67;89.24
22047;BME280;11187;49.412;20.956;2022-09-03T09:37:26;95355.94;;;14.71;89.84
22047;BME280;11187;49.412;20.956;2022-09-03T09:40:32;95361.91;;;14.73;89.13
22047;BME280;11187;49.412;20.956;2022-09-03T09:43:27;95369.63;;;14.73;89.53
22047;BME280;11187;49.412;20.956;2022-09-03T09:46:24;95369.59;;;14.75;89.46
22047;BME280;11187;49.412;20.956;2022-09-03T09:48:58;95373.91;;;14.74;89.37
22047;BME280;11187;49.412;20.956;2022-09-03T09:51:45;95374.72;;;14.76;89.37
22047;BME280;11187;49.412;20.956;2022-09-03T09:54:25;95371.97;;;14.81;88.57
22047;BME280;11187;49.412;20.956;2022-09-03T09:57:24;95380.53;;;14.83;88.82
22047;BME280;11187;49.412;20.956;2022-09-03T10:00:18;95382.19;;;14.84;88.08
22047;BME280;11187;49.412;20.956;2022-09-03T10:02:53;95383.00;;;14.86;88.50
22047;BME280;11187;49.412;20.956;2022-09-03T10:05:59;95383.78;;;14.88;88.79
22047;BME280;11187;49.412;20.956;2022-09-03T10:09:18;95381.94;;;14.92;88.42
22047;BME280;11187;49.412;20.956;2022-09-03T10:12:23;95383.59;;;14.94;89.29
22047;BME280;11187;49.412;20.956;2022-09-03T10:15:24;95380.94;;;14.97;88.16
22047;BME280;11187;49.412;20.956;2022-09-03T10:21:29;95375.59;;;15.03;88.07
22047;BME280;11187;49.412;20.956;2022-09-03T10:27:25;95387.53;;;15.06;87.54
22047;BME280;11187;49.412;20.956;2022-09-03T10:30:20;95384.06;;;15.07;87.74
22047;BME280;11187;49.412;20.956;2022-09-03T10:33:11;95369.41;;;15.08;87.87
22047;BME280;11187;49.412;20.956;2022-09-03T10:36:13;95374.56;;;15.08;88.32
22047;BME280;11187;49.412;20.956;2022-09-03T10:38:58;95377.94;;;15.10;87.69
22047;BME280;11187;49.412;20.956;2022-09-03T10:51:27;95382.97;;;15.14;87.59
22047;BME280;11187;49.412;20.956;2022-09-03T10:57:20;95388.13;;;15.14;88.12
22047;BME280;11187;49.412;20.956;2022-09-03T11:00:17;95384.69;;;15.14;87.92
22047;BME280;11187;49.412;20.956;2022-09-03T11:06:16;95380.38;;;15.14;87.06
22047;BME280;11187;49.412;20.956;2022-09-03T11:12:23;95383.72;;;15.18;87.71
22047;BME280;11187;49.412;20.956;2022-09-03T11:15:14;95381.94;;;15.20;87.87
22047;BME280;11187;49.412;20.956;2022-09-03T11:18:07;95387.09;;;15.20;87.20
22047;BME280;11187;49.412;20.956;2022-09-03T11:21:09;95398.28;;;15.19;87.21
22047;BME280;11187;49.412;20.956;2022-09-03T11:24:13;95397.44;;;15.18;87.71
22047;BME280;11187;49.412;20.956;2022-09-03T11:30:04;95384.56;;;15.18;87.61
22047;BME280;11187;49.412;20.956;2022-09-03T11:33:05;95378.50;;;15.19;86.32
22047;BME280;11187;49.412;20.956;2022-09-03T11:35:41;95380.19;;;15.20;86.97
22047;BME280;11187;49.412;20.956;2022-09-03T11:38:45;95382.75;;;15.20;87.28
22047;BME280;11187;49.412;20.956;2022-09-03T11:41:39;95385.31;;;15.22;87.70
22047;BME280;11187;49.412;20.956;2022-09-03T11:44:19;95383.56;;;15.22;87.66
22047;BME280;11187;49.412;20.956;2022-09-03T11:49:52;95379.09;;;15.28;87.39
22047;BME280;11187;49.412;20.956;2022-09-03T11:53:38;95387.66;;;15.28;87.26
22047;BME280;11187;49.412;20.956;2022-09-03T11:55:53;95381.66;;;15.28;87.53
22047;BME280;11187;49.412;20.956;2022-09-03T11:58:39;95379.94;;;15.28;87.33
22047;BME280;11187;49.412;20.956;2022-09-03T12:01:21;95378.22;;;15.29;86.81
22047;BME280;11187;49.412;20.956;2022-09-03T12:04:04;95373.84;;;15.31;87.08
22047;BME280;11187;49.412;20.956;2022-09-03T12:13:03;95380.50;;;15.38;86.21
22047;BME280;11187;49.412;20.956;2022-09-03T12:15:44;95389.94;;;15.37;86.49
22047;BME280;11187;49.412;20.956;2022-09-03T12:18:35;95390.00;;;15.36;85.73
22047;BME280;11187;49.412;20.956;2022-09-03T12:21:10;95387.44;;;15.36;86.37
22047;BME280;11187;49.412;20.956;2022-09-03T12:24:00;95377.13;;;15.36;86.59
22047;BME280;11187;49.412;20.956;2022-09-03T12:26:39;95375.38;;;15.36;86.95
22047;BME280;11187;49.412;20.956;2022-09-03T12:29:33;95371.88;;;15.37;87.16
22047;BME280;11187;49.412;20.956;2022-09-03T12:32:10;95374.44;;;15.39;88.16
22047;BME280;11187;49.412;20.956;2022-09-03T12:35:22;95370.81;;;15.44;87.55
22047;BME280;11187;49.412;20.956;2022-09-03T12:38:22;95375.91;;;15.46;87.14
22047;BME280;11187;49.412;20.956;2022-09-03T12:41:37;95368.13;;;15.48;87.35
22047;BME280;11187;49.412;20.956;2022-09-03T12:47:11;95375.81;;;15.49;87.57
22047;BME280;11187;49.412;20.956;2022-09-03T12:50:22;95380.22;;;15.45;86.49
22047;BME280;11187;49.412;20.956;2022-09-03T12:53:28;95377.75;;;15.42;87.04
22047;BME280;11187;49.412;20.956;2022-09-03T12:56:25;95378.63;;;15.41;86.82
22047;BME280;11187;49.412;20.956;2022-09-03T12:59:22;95370.09;;;15.39;86.42
22047;BME280;11187;49.412;20.956;2022-09-03T13:02:03;95377.00;;;15.39;86.75
22047;BME280;11187;49.412;20.956;2022-09-03T13:04:55;95380.53;;;15.36;86.83
22047;BME280;11187;49.412;20.956;2022-09-03T13:07:32;95370.25;;;15.35;86.64
22047;BME280;11187;49.412;20.956;2022-09-03T13:10:29;95370.22;;;15.36;86.87
22047;BME280;11187;49.412;20.956;2022-09-03T13:13:18;95370.19;;;15.38;87.34
22047;BME280;11187;49.412;20.956;2022-09-03T13:26:01;95366.50;;;15.45;87.68
22047;BME280;11187;49.412;20.956;2022-09-03T13:29:09;95371.66;;;15.45;88.19
22047;BME280;11187;49.412;20.956;2022-09-03T13:31:51;95369.03;;;15.47;87.90
22047;BME280;11187;49.412;20.956;2022-09-03T13:34:50;95366.38;;;15.48;87.65
22047;BME280;11187;49.412;20.956;2022-09-03T13:37:31;95363.75;;;15.50;87.28
22047;BME280;11187;49.412;20.956;2022-09-03T13:40:23;95358.47;;;15.53;87.23
22047;BME280;11187;49.412;20.956;2022-09-03T13:46:16;95354.03;;;15.58;87.02
22047;BME280;11187;49.412;20.956;2022-09-03T13:49:01;95354.75;;;15.61;86.27
22047;BME280;11187;49.412;20.956;2022-09-03T13:52:29;95355.50;;;15.65;86.37
22047;BME280;11187;49.412;20.956;2022-09-03T13:55:51;95354.47;;;15.69;86.63
22047;BME280;11187;49.412;20.956;2022-09-03T14:01:22;95367.28;;;15.74;86.56
22047;BME280;11187;49.412;20.956;2022-09-03T14:04:00;95362.13;;;15.74;86.27
22047;BME280;11187;49.412;20.956;2022-09-03T14:07:02;95360.38;;;15.74;85.79
22047;BME280;11187;49.412;20.956;2022-09-03T14:09:57;95361.22;;;15.75;85.56
22047;BME280;11187;49.412;20.956;2022-09-03T14:21:55;95365.47;;;15.76;86.47
22047;BME280;11187;49.412;20.956;2022-09-03T14:24:53;95366.25;;;15.78;85.87
22047;BME280;11187;49.412;20.956;2022-09-03T14:27:48;95364.47;;;15.80;85.30
22047;BME280;11187;49.412;20.956;2022-09-03T14:30:48;95362.00;;;15.77;84.82
22047;BME280;11187;49.412;20.956;2022-09-03T14:34:23;95374.00;;;15.78;85.77
22047;BME280;11187;49.412;20.956;2022-09-03T14:37:05;95368.91;;;15.76;86.21
22047;BME280;11187;49.412;20.956;2022-09-03T14:49:44;95362.78;;;15.79;87.08
22047;BME280;11187;49.412;20.956;2022-09-03T15:01:17;95372.22;;;15.80;87.65
22047;BME280;11187;49.412;20.956;2022-09-03T15:07:54;95366.25;;;15.78;87.49
22047;BME280;11187;49.412;20.956;2022-09-03T15:13:53;95363.78;;;15.75;87.35
22047;BME280;11187;49.412;20.956;2022-09-03T15:19:57;95377.78;;;15.68;87.91
22047;BME280;11187;49.412;20.956;2022-09-03T15:29:06;95383.41;;;15.54;88.61
22047;BME280;11187;49.412;20.956;2022-09-03T15:37:55;95370.81;;;15.44;89.41
22047;BME280;11187;49.412;20.956;2022-09-03T15:40:47;95366.66;;;15.40;89.74
22047;BME280;11187;49.412;20.956;2022-09-03T15:43:47;95361.56;;;15.37;89.48
22047;BME280;11187;49.412;20.956;2022-09-03T15:59:15;95368.75;;;15.29;88.62
22047;BME280;11187;49.412;20.956;2022-09-03T16:01:59;95366.16;;;15.29;89.18
22047;BME280;11187;49.412;20.956;2022-09-03T16:05:00;95371.34;;;15.28;89.05
22047;BME280;11187;49.412;20.956;2022-09-03T16:20:13;95365.84;;;15.12;89.93
22047;BME280;11187;49.412;20.956;2022-09-03T16:28:34;95363.72;;;14.98;91.09
22047;BME280;11187;49.412;20.956;2022-09-03T16:40:40;95372.72;;;14.85;91.96
22047;BME280;11187;49.412;20.956;2022-09-03T16:43:45;95368.63;;;14.79;92.02
22047;BME280;11187;49.412;20.956;2022-09-03T16:56:01;95371.19;;;14.49;93.64
22047;BME280;11187;49.412;20.956;2022-09-03T16:59:24;95376.63;;;14.40;93.96
22047;BME280;11187;49.412;20.956;2022-09-03T17:10:48;95377.38;;;14.12;95.44
22047;BME280;11187;49.412;20.956;2022-09-03T17:13:59;95381.91;;;14.04;95.39
22047;BME280;11187;49.412;20.956;2022-09-03T17:31:14;95387.88;;;13.73;96.70
22047;BME280;11187;49.412;20.956;2022-09-03T17:43:12;95391.41;;;13.69;97.42
22047;BME280;11187;49.412;20.956;2022-09-03T17:49:31;95395.84;;;13.64;97.97
22047;BME280;11187;49.412;20.956;2022-09-03T17:58:43;95402.69;;;13.65;97.58
22047;BME280;11187;49.412;20.956;2022-09-03T18:01:26;95416.50;;;13.61;97.76
22047;BME280;11187;49.412;20.956;2022-09-03T18:04:27;95416.63;;;13.56;98.43
22047;BME280;11187;49.412;20.956;2022-09-03T18:07:07;95422.69;;;13.54;98.40
22047;BME280;11187;49.412;20.956;2022-09-03T18:12:53;95433.84;;;13.53;99.10
22047;BME280;11187;49.412;20.956;2022-09-03T18:18:50;95439.84;;;13.53;98.81
22047;BME280;11187;49.412;20.956;2022-09-03T18:21:28;95437.22;;;13.55;98.36
22047;BME280;11187;49.412;20.956;2022-09-03T18:24:52;95440.63;;;13.57;98.47
22047;BME280;11187;49.412;20.956;2022-09-03T18:27:49;95439.00;;;13.53;98.28
22047;BME280;11187;49.412;20.956;2022-09-03T18:30:59;95435.56;;;13.54;98.01
22047;BME280;11187;49.412;20.956;2022-09-03T18:33:51;95435.56;;;13.54;98.19
22047;BME280;11187;49.412;20.956;2022-09-03T18:37:02;95439.00;;;13.53;98.19
22047;BME280;11187;49.412;20.956;2022-09-03T18:39:55;95444.22;;;13.50;98.50
22047;BME280;11187;49.412;20.956;2022-09-03T18:43:38;95445.09;;;13.49;98.50
22047;BME280;11187;49.412;20.956;2022-09-03T18:47:39;95447.84;;;13.43;98.60
22047;BME280;11187;49.412;20.956;2022-09-03T18:50:53;95452.19;;;13.39;98.74
22047;BME280;11187;49.412;20.956;2022-09-03T18:58:08;95449.03;;;13.28;99.16
22047;BME280;11187;49.412;20.956;2022-09-03T19:05:08;95459.34;;;13.26;99.38
22047;BME280;11187;49.412;20.956;2022-09-03T19:08:40;95459.38;;;13.25;99.04
22047;BME280;11187;49.412;20.956;2022-09-03T19:14:59;95462.19;;;13.14;100.00
22047;BME280;11187;49.412;20.956;2022-09-03T19:21:35;95465.78;;;13.07;100.00
22047;BME280;11187;49.412;20.956;2022-09-03T19:24:42;95463.22;;;13.05;100.00